Terminal Aerodrome Forecast
Issued by NWS

Home | Current Version | Previous Version | Text Only | Print | Product List | Glossary On
Versions: 1 2 3 4 5 6 7 8 9 10 11 12 13 14 15 16
000
FTAK31 PAFA 291145
TAFABT
TAF
PABT 291145Z 2912/3012 02006KT P6SM VCSH BKN050
     FM291600 02006KT 5SM -SN BR BKN035
     FM292100 02005KT 2SM -SN BR BKN025
     FM300300 02005KT 1SM -SN BR BKN015=

USA.gov is the U.S. government's official web portal to all federal, state and local government web resources and services.